sensor_id;sensor_type;location;lat;lon;timestamp;P1;durP1;ratioP1;P2;durP2;ratioP2
43986;SDS011;29650;47.378;8.300;2023-03-05T00:01:04;39.00;;;15.80;;
43986;SDS011;29650;47.378;8.300;2023-03-05T00:03:32;39.05;;;15.63;;
43986;SDS011;29650;47.378;8.300;2023-03-05T00:05:59;41.95;;;16.58;;
43986;SDS011;29650;47.378;8.300;2023-03-05T00:08:26;34.35;;;14.60;;
43986;SDS011;29650;47.378;8.300;2023-03-05T00:10:56;37.05;;;14.95;;
43986;SDS011;29650;47.378;8.300;2023-03-05T00:13:25;40.75;;;16.25;;
43986;SDS011;29650;47.378;8.300;2023-03-05T00:15:52;41.05;;;15.55;;
43986;SDS011;29650;47.378;8.300;2023-03-05T00:18:19;39.30;;;14.50;;
43986;SDS011;29650;47.378;8.300;2023-03-05T00:20:47;51.28;;;17.20;;
43986;SDS011;29650;47.378;8.300;2023-03-05T00:23:14;41.10;;;16.20;;
43986;SDS011;29650;47.378;8.300;2023-03-05T00:25:42;58.90;;;16.55;;
43986;SDS011;29650;47.378;8.300;2023-03-05T00:28:10;40.50;;;16.73;;
43986;SDS011;29650;47.378;8.300;2023-03-05T00:30:38;40.50;;;17.42;;
43986;SDS011;29650;47.378;8.300;2023-03-05T00:33:05;35.97;;;15.37;;
43986;SDS011;29650;47.378;8.300;2023-03-05T00:35:37;42.63;;;17.30;;
43986;SDS011;29650;47.378;8.300;2023-03-05T00:38:04;47.30;;;16.73;;
43986;SDS011;29650;47.378;8.300;2023-03-05T00:40:33;39.13;;;16.83;;
43986;SDS011;29650;47.378;8.300;2023-03-05T00:43:01;38.50;;;16.15;;
43986;SDS011;29650;47.378;8.300;2023-03-05T00:45:28;44.72;;;15.65;;
43986;SDS011;29650;47.378;8.300;2023-03-05T00:47:56;41.20;;;16.25;;
43986;SDS011;29650;47.378;8.300;2023-03-05T00:50:25;43.67;;;16.42;;
43986;SDS011;29650;47.378;8.300;2023-03-05T00:52:52;42.40;;;17.00;;
43986;SDS011;29650;47.378;8.300;2023-03-05T00:55:19;46.78;;;15.25;;
43986;SDS011;29650;47.378;8.300;2023-03-05T00:57:46;41.50;;;16.92;;
43986;SDS011;29650;47.378;8.300;2023-03-05T01:00:14;38.00;;;14.95;;
43986;SDS011;29650;47.378;8.300;2023-03-05T01:02:41;38.60;;;17.00;;
43986;SDS011;29650;47.378;8.300;2023-03-05T01:05:11;38.47;;;16.08;;
43986;SDS011;29650;47.378;8.300;2023-03-05T01:07:39;44.30;;;16.10;;
43986;SDS011;29650;47.378;8.300;2023-03-05T01:10:06;41.17;;;15.55;;
43986;SDS011;29650;47.378;8.300;2023-03-05T01:12:34;42.00;;;17.25;;
43986;SDS011;29650;47.378;8.300;2023-03-05T01:15:01;49.75;;;17.83;;
43986;SDS011;29650;47.378;8.300;2023-03-05T01:17:29;41.30;;;16.17;;
43986;SDS011;29650;47.378;8.300;2023-03-05T01:19:56;44.28;;;17.90;;
43986;SDS011;29650;47.378;8.300;2023-03-05T01:22:25;35.38;;;15.00;;
43986;SDS011;29650;47.378;8.300;2023-03-05T01:24:52;47.77;;;18.23;;
43986;SDS011;29650;47.378;8.300;2023-03-05T01:27:18;47.55;;;18.02;;
43986;SDS011;29650;47.378;8.300;2023-03-05T01:29:45;39.15;;;17.23;;
43986;SDS011;29650;47.378;8.300;2023-03-05T01:32:12;37.15;;;17.17;;
43986;SDS011;29650;47.378;8.300;2023-03-05T01:34:39;43.67;;;17.55;;
43986;SDS011;29650;47.378;8.300;2023-03-05T01:37:07;43.42;;;16.58;;
43986;SDS011;29650;47.378;8.300;2023-03-05T01:39:35;44.75;;;17.15;;
43986;SDS011;29650;47.378;8.300;2023-03-05T01:42:02;40.00;;;16.08;;
43986;SDS011;29650;47.378;8.300;2023-03-05T01:44:30;34.90;;;15.82;;
43986;SDS011;29650;47.378;8.300;2023-03-05T01:46:57;35.45;;;15.23;;
43986;SDS011;29650;47.378;8.300;2023-03-05T01:49:24;43.40;;;17.48;;
43986;SDS011;29650;47.378;8.300;2023-03-05T01:52:00;39.65;;;15.60;;
43986;SDS011;29650;47.378;8.300;2023-03-05T01:54:32;44.75;;;18.58;;
43986;SDS011;29650;47.378;8.300;2023-03-05T01:59:31;44.38;;;17.73;;
43986;SDS011;29650;47.378;8.300;2023-03-05T02:01:58;45.72;;;18.10;;
43986;SDS011;29650;47.378;8.300;2023-03-05T02:04:28;45.33;;;15.75;;
43986;SDS011;29650;47.378;8.300;2023-03-05T02:06:59;43.15;;;17.42;;
43986;SDS011;29650;47.378;8.300;2023-03-05T02:09:26;39.78;;;16.27;;
43986;SDS011;29650;47.378;8.300;2023-03-05T02:11:53;35.13;;;16.02;;
43986;SDS011;29650;47.378;8.300;2023-03-05T02:14:22;53.47;;;19.52;;
43986;SDS011;29650;47.378;8.300;2023-03-05T02:16:50;38.22;;;17.58;;
43986;SDS011;29650;47.378;8.300;2023-03-05T02:19:17;44.13;;;16.70;;
43986;SDS011;29650;47.378;8.300;2023-03-05T02:21:46;41.00;;;16.35;;
43986;SDS011;29650;47.378;8.300;2023-03-05T02:24:16;41.63;;;16.30;;
43986;SDS011;29650;47.378;8.300;2023-03-05T02:26:56;48.00;;;16.88;;
43986;SDS011;29650;47.378;8.300;2023-03-05T02:29:23;37.55;;;17.52;;
43986;SDS011;29650;47.378;8.300;2023-03-05T02:31:51;40.85;;;16.90;;
43986;SDS011;29650;47.378;8.300;2023-03-05T02:34:18;44.50;;;17.20;;
43986;SDS011;29650;47.378;8.300;2023-03-05T02:36:46;42.13;;;18.45;;
43986;SDS011;29650;47.378;8.300;2023-03-05T02:39:14;38.25;;;17.52;;
43986;SDS011;29650;47.378;8.300;2023-03-05T02:41:41;41.55;;;17.48;;
43986;SDS011;29650;47.378;8.300;2023-03-05T02:44:08;40.72;;;17.08;;
43986;SDS011;29650;47.378;8.300;2023-03-05T02:46:35;37.17;;;16.58;;
43986;SDS011;29650;47.378;8.300;2023-03-05T02:49:02;43.97;;;17.02;;
43986;SDS011;29650;47.378;8.300;2023-03-05T02:51:29;38.63;;;16.17;;
43986;SDS011;29650;47.378;8.300;2023-03-05T02:53:57;37.17;;;16.13;;
43986;SDS011;29650;47.378;8.300;2023-03-05T02:56:24;43.92;;;17.73;;
43986;SDS011;29650;47.378;8.300;2023-03-05T02:58:51;46.08;;;17.02;;
43986;SDS011;29650;47.378;8.300;2023-03-05T03:01:18;49.75;;;18.40;;
43986;SDS011;29650;47.378;8.300;2023-03-05T03:03:45;47.28;;;16.58;;
43986;SDS011;29650;47.378;8.300;2023-03-05T03:06:11;42.15;;;18.30;;
43986;SDS011;29650;47.378;8.300;2023-03-05T03:08:38;43.20;;;18.00;;
43986;SDS011;29650;47.378;8.300;2023-03-05T03:11:07;38.40;;;16.08;;
43986;SDS011;29650;47.378;8.300;2023-03-05T03:13:36;40.17;;;16.90;;
43986;SDS011;29650;47.378;8.300;2023-03-05T03:16:04;46.83;;;18.58;;
43986;SDS011;29650;47.378;8.300;2023-03-05T03:18:32;49.03;;;18.38;;
43986;SDS011;29650;47.378;8.300;2023-03-05T03:20:59;44.97;;;17.80;;
43986;SDS011;29650;47.378;8.300;2023-03-05T03:23:27;44.67;;;17.80;;
43986;SDS011;29650;47.378;8.300;2023-03-05T03:25:54;42.75;;;17.02;;
43986;SDS011;29650;47.378;8.300;2023-03-05T03:28:22;40.50;;;17.45;;
43986;SDS011;29650;47.378;8.300;2023-03-05T03:30:49;38.87;;;17.57;;
43986;SDS011;29650;47.378;8.300;2023-03-05T03:33:16;56.80;;;17.95;;
43986;SDS011;29650;47.378;8.300;2023-03-05T03:35:43;47.70;;;18.08;;
43986;SDS011;29650;47.378;8.300;2023-03-05T03:38:11;49.67;;;15.90;;
43986;SDS011;29650;47.378;8.300;2023-03-05T03:40:38;39.50;;;16.13;;
43986;SDS011;29650;47.378;8.300;2023-03-05T03:43:06;44.40;;;19.00;;
43986;SDS011;29650;47.378;8.300;2023-03-05T03:45:34;39.67;;;18.40;;
43986;SDS011;29650;47.378;8.300;2023-03-05T03:48:05;47.78;;;18.35;;
43986;SDS011;29650;47.378;8.300;2023-03-05T03:50:32;52.72;;;17.98;;
43986;SDS011;29650;47.378;8.300;2023-03-05T03:52:59;45.47;;;17.98;;
43986;SDS011;29650;47.378;8.300;2023-03-05T03:55:26;41.05;;;16.83;;
43986;SDS011;29650;47.378;8.300;2023-03-05T03:57:53;43.70;;;17.65;;
43986;SDS011;29650;47.378;8.300;2023-03-05T04:00:20;46.85;;;18.33;;
43986;SDS011;29650;47.378;8.300;2023-03-05T04:02:49;47.60;;;19.73;;
43986;SDS011;29650;47.378;8.300;2023-03-05T04:05:16;45.72;;;18.98;;
43986;SDS011;29650;47.378;8.300;2023-03-05T04:07:43;48.60;;;20.05;;
43986;SDS011;29650;47.378;8.300;2023-03-05T04:10:10;49.33;;;18.73;;
43986;SDS011;29650;47.378;8.300;2023-03-05T04:12:37;45.05;;;18.73;;
43986;SDS011;29650;47.378;8.300;2023-03-05T04:15:07;37.97;;;17.35;;
43986;SDS011;29650;47.378;8.300;2023-03-05T04:17:35;41.13;;;16.35;;
43986;SDS011;29650;47.378;8.300;2023-03-05T04:20:03;46.08;;;15.98;;
43986;SDS011;29650;47.378;8.300;2023-03-05T04:22:34;42.80;;;17.48;;
43986;SDS011;29650;47.378;8.300;2023-03-05T04:25:01;46.40;;;19.23;;
43986;SDS011;29650;47.378;8.300;2023-03-05T04:27:30;50.72;;;18.45;;
43986;SDS011;29650;47.378;8.300;2023-03-05T04:29:58;44.40;;;17.88;;
43986;SDS011;29650;47.378;8.300;2023-03-05T04:32:25;43.30;;;17.45;;
43986;SDS011;29650;47.378;8.300;2023-03-05T04:34:53;42.35;;;17.05;;
43986;SDS011;29650;47.378;8.300;2023-03-05T04:37:22;39.92;;;17.40;;
43986;SDS011;29650;47.378;8.300;2023-03-05T04:39:49;39.90;;;15.67;;
43986;SDS011;29650;47.378;8.300;2023-03-05T04:42:16;54.40;;;18.85;;
43986;SDS011;29650;47.378;8.300;2023-03-05T04:44:44;43.35;;;16.77;;
43986;SDS011;29650;47.378;8.300;2023-03-05T04:47:11;41.65;;;17.60;;
43986;SDS011;29650;47.378;8.300;2023-03-05T04:49:38;47.10;;;17.38;;
43986;SDS011;29650;47.378;8.300;2023-03-05T04:52:05;46.65;;;17.98;;
43986;SDS011;29650;47.378;8.300;2023-03-05T04:54:33;53.20;;;18.95;;
43986;SDS011;29650;47.378;8.300;2023-03-05T04:57:00;44.95;;;18.15;;
43986;SDS011;29650;47.378;8.300;2023-03-05T04:59:27;49.00;;;17.77;;
43986;SDS011;29650;47.378;8.300;2023-03-05T05:01:54;43.50;;;18.50;;
43986;SDS011;29650;47.378;8.300;2023-03-05T05:04:21;46.85;;;16.90;;
43986;SDS011;29650;47.378;8.300;2023-03-05T05:06:48;46.33;;;18.27;;
43986;SDS011;29650;47.378;8.300;2023-03-05T05:09:15;63.13;;;17.70;;
43986;SDS011;29650;47.378;8.300;2023-03-05T05:11:43;45.95;;;17.42;;
43986;SDS011;29650;47.378;8.300;2023-03-05T05:14:10;41.83;;;18.15;;
43986;SDS011;29650;47.378;8.300;2023-03-05T05:16:37;48.80;;;19.08;;
43986;SDS011;29650;47.378;8.300;2023-03-05T05:19:04;35.97;;;16.38;;
43986;SDS011;29650;47.378;8.300;2023-03-05T05:21:30;47.25;;;17.48;;
43986;SDS011;29650;47.378;8.300;2023-03-05T05:23:57;42.88;;;16.55;;
43986;SDS011;29650;47.378;8.300;2023-03-05T05:26:24;53.00;;;18.48;;
43986;SDS011;29650;47.378;8.300;2023-03-05T05:28:53;53.83;;;17.38;;
43986;SDS011;29650;47.378;8.300;2023-03-05T05:31:20;43.17;;;17.20;;
43986;SDS011;29650;47.378;8.300;2023-03-05T05:33:47;45.40;;;17.42;;
43986;SDS011;29650;47.378;8.300;2023-03-05T05:36:14;47.13;;;17.50;;
43986;SDS011;29650;47.378;8.300;2023-03-05T05:41:11;43.15;;;17.63;;
43986;SDS011;29650;47.378;8.300;2023-03-05T05:43:39;52.65;;;20.65;;
43986;SDS011;29650;47.378;8.300;2023-03-05T05:46:09;46.35;;;17.35;;
43986;SDS011;29650;47.378;8.300;2023-03-05T05:48:37;40.60;;;16.95;;
43986;SDS011;29650;47.378;8.300;2023-03-05T05:51:04;54.67;;;18.30;;
43986;SDS011;29650;47.378;8.300;2023-03-05T05:53:32;52.35;;;19.30;;
43986;SDS011;29650;47.378;8.300;2023-03-05T05:56:00;49.17;;;18.98;;
43986;SDS011;29650;47.378;8.300;2023-03-05T05:58:28;47.83;;;18.27;;
43986;SDS011;29650;47.378;8.300;2023-03-05T06:00:55;38.65;;;17.52;;
43986;SDS011;29650;47.378;8.300;2023-03-05T06:03:24;46.80;;;18.38;;
43986;SDS011;29650;47.378;8.300;2023-03-05T06:05:51;49.50;;;18.85;;
43986;SDS011;29650;47.378;8.300;2023-03-05T06:08:18;42.75;;;17.83;;
43986;SDS011;29650;47.378;8.300;2023-03-05T06:10:45;47.72;;;17.17;;
43986;SDS011;29650;47.378;8.300;2023-03-05T06:13:19;46.83;;;17.33;;
43986;SDS011;29650;47.378;8.300;2023-03-05T06:15:53;42.95;;;17.10;;
43986;SDS011;29650;47.378;8.300;2023-03-05T06:18:21;47.08;;;18.20;;
43986;SDS011;29650;47.378;8.300;2023-03-05T06:20:54;41.65;;;16.70;;
43986;SDS011;29650;47.378;8.300;2023-03-05T06:23:22;45.22;;;18.35;;
43986;SDS011;29650;47.378;8.300;2023-03-05T06:25:49;46.25;;;16.35;;
43986;SDS011;29650;47.378;8.300;2023-03-05T06:28:16;50.40;;;17.75;;
43986;SDS011;29650;47.378;8.300;2023-03-05T06:30:43;44.58;;;17.23;;
43986;SDS011;29650;47.378;8.300;2023-03-05T06:33:10;46.20;;;17.85;;
43986;SDS011;29650;47.378;8.300;2023-03-05T06:35:37;41.47;;;16.80;;
43986;SDS011;29650;47.378;8.300;2023-03-05T06:38:06;46.70;;;18.73;;
43986;SDS011;29650;47.378;8.300;2023-03-05T06:43:00;47.65;;;19.23;;
43986;SDS011;29650;47.378;8.300;2023-03-05T06:45:27;47.33;;;16.90;;
43986;SDS011;29650;47.378;8.300;2023-03-05T06:47:54;49.65;;;18.98;;
43986;SDS011;29650;47.378;8.300;2023-03-05T06:50:21;43.33;;;17.73;;
43986;SDS011;29650;47.378;8.300;2023-03-05T06:52:48;46.53;;;17.30;;
43986;SDS011;29650;47.378;8.300;2023-03-05T06:55:17;39.28;;;16.13;;
43986;SDS011;29650;47.378;8.300;2023-03-05T06:57:44;44.47;;;17.65;;
43986;SDS011;29650;47.378;8.300;2023-03-05T07:00:11;44.40;;;18.00;;
43986;SDS011;29650;47.378;8.300;2023-03-05T07:02:39;45.03;;;16.50;;
43986;SDS011;29650;47.378;8.300;2023-03-05T07:05:06;48.35;;;17.75;;
43986;SDS011;29650;47.378;8.300;2023-03-05T07:07:33;48.03;;;18.17;;
43986;SDS011;29650;47.378;8.300;2023-03-05T07:10:01;42.75;;;17.90;;
43986;SDS011;29650;47.378;8.300;2023-03-05T07:12:30;47.25;;;18.10;;
43986;SDS011;29650;47.378;8.300;2023-03-05T07:14:58;45.08;;;17.05;;
43986;SDS011;29650;47.378;8.300;2023-03-05T07:17:25;40.13;;;17.98;;
43986;SDS011;29650;47.378;8.300;2023-03-05T07:19:52;49.35;;;17.08;;
43986;SDS011;29650;47.378;8.300;2023-03-05T07:22:18;43.75;;;17.55;;
43986;SDS011;29650;47.378;8.300;2023-03-05T07:24:45;44.00;;;15.57;;
43986;SDS011;29650;47.378;8.300;2023-03-05T07:27:12;37.53;;;16.15;;
43986;SDS011;29650;47.378;8.300;2023-03-05T07:29:40;38.72;;;16.55;;
43986;SDS011;29650;47.378;8.300;2023-03-05T07:32:07;42.72;;;16.02;;
43986;SDS011;29650;47.378;8.300;2023-03-05T07:34:35;38.88;;;16.48;;
43986;SDS011;29650;47.378;8.300;2023-03-05T07:37:03;48.42;;;18.23;;
43986;SDS011;29650;47.378;8.300;2023-03-05T07:39:30;54.63;;;18.75;;
43986;SDS011;29650;47.378;8.300;2023-03-05T07:41:57;39.70;;;17.55;;
43986;SDS011;29650;47.378;8.300;2023-03-05T07:44:24;45.60;;;17.52;;
43986;SDS011;29650;47.378;8.300;2023-03-05T07:46:52;42.67;;;16.90;;
43986;SDS011;29650;47.378;8.300;2023-03-05T07:49:19;39.50;;;15.77;;
43986;SDS011;29650;47.378;8.300;2023-03-05T07:51:47;48.80;;;17.00;;
43986;SDS011;29650;47.378;8.300;2023-03-05T07:54:14;40.00;;;16.65;;
43986;SDS011;29650;47.378;8.300;2023-03-05T07:56:41;48.60;;;17.63;;
43986;SDS011;29650;47.378;8.300;2023-03-05T07:59:09;40.78;;;16.58;;
43986;SDS011;29650;47.378;8.300;2023-03-05T08:01:37;42.38;;;17.15;;
43986;SDS011;29650;47.378;8.300;2023-03-05T08:04:06;37.95;;;15.35;;
43986;SDS011;29650;47.378;8.300;2023-03-05T08:06:37;45.13;;;15.93;;
43986;SDS011;29650;47.378;8.300;2023-03-05T08:09:05;47.65;;;17.80;;
43986;SDS011;29650;47.378;8.300;2023-03-05T08:11:31;41.58;;;17.92;;
43986;SDS011;29650;47.378;8.300;2023-03-05T08:13:58;43.17;;;15.45;;
43986;SDS011;29650;47.378;8.300;2023-03-05T08:16:25;44.55;;;16.58;;
43986;SDS011;29650;47.378;8.300;2023-03-05T08:18:53;41.50;;;15.85;;
43986;SDS011;29650;47.378;8.300;2023-03-05T08:21:22;45.58;;;18.08;;
43986;SDS011;29650;47.378;8.300;2023-03-05T08:23:53;46.35;;;15.73;;
43986;SDS011;29650;47.378;8.300;2023-03-05T08:26:21;50.58;;;18.02;;
43986;SDS011;29650;47.378;8.300;2023-03-05T08:28:49;39.85;;;16.25;;
43986;SDS011;29650;47.378;8.300;2023-03-05T08:31:17;43.20;;;16.83;;
43986;SDS011;29650;47.378;8.300;2023-03-05T08:33:47;40.17;;;15.88;;
43986;SDS011;29650;47.378;8.300;2023-03-05T08:36:14;45.95;;;16.45;;
43986;SDS011;29650;47.378;8.300;2023-03-05T08:38:42;45.88;;;17.42;;
43986;SDS011;29650;47.378;8.300;2023-03-05T08:41:11;36.97;;;17.42;;
43986;SDS011;29650;47.378;8.300;2023-03-05T08:43:38;49.70;;;17.55;;
43986;SDS011;29650;47.378;8.300;2023-03-05T08:46:05;37.75;;;15.23;;
43986;SDS011;29650;47.378;8.300;2023-03-05T08:48:32;46.35;;;17.48;;
43986;SDS011;29650;47.378;8.300;2023-03-05T08:51:03;46.03;;;16.52;;
43986;SDS011;29650;47.378;8.300;2023-03-05T08:53:30;39.47;;;15.43;;
43986;SDS011;29650;47.378;8.300;2023-03-05T08:55:59;38.90;;;14.13;;
43986;SDS011;29650;47.378;8.300;2023-03-05T08:58:26;31.08;;;14.52;;
43986;SDS011;29650;47.378;8.300;2023-03-05T09:00:53;40.65;;;14.85;;
43986;SDS011;29650;47.378;8.300;2023-03-05T09:03:20;44.08;;;16.88;;
43986;SDS011;29650;47.378;8.300;2023-03-05T09:05:47;46.25;;;15.88;;
43986;SDS011;29650;47.378;8.300;2023-03-05T09:08:15;40.45;;;15.63;;
43986;SDS011;29650;47.378;8.300;2023-03-05T09:10:42;48.78;;;15.30;;
43986;SDS011;29650;47.378;8.300;2023-03-05T09:13:11;43.17;;;15.63;;
43986;SDS011;29650;47.378;8.300;2023-03-05T09:15:38;38.85;;;16.55;;
43986;SDS011;29650;47.378;8.300;2023-03-05T09:18:05;40.92;;;16.00;;
43986;SDS011;29650;47.378;8.300;2023-03-05T09:20:33;38.55;;;15.43;;
43986;SDS011;29650;47.378;8.300;2023-03-05T09:23:00;48.45;;;19.40;;
43986;SDS011;29650;47.378;8.300;2023-03-05T09:25:28;43.95;;;17.63;;
43986;SDS011;29650;47.378;8.300;2023-03-05T09:27:55;40.85;;;16.80;;
43986;SDS011;29650;47.378;8.300;2023-03-05T09:30:23;43.97;;;16.50;;
43986;SDS011;29650;47.378;8.300;2023-03-05T09:32:50;42.57;;;16.60;;
43986;SDS011;29650;47.378;8.300;2023-03-05T09:35:17;46.22;;;16.98;;
43986;SDS011;29650;47.378;8.300;2023-03-05T09:37:44;33.85;;;15.52;;
43986;SDS011;29650;47.378;8.300;2023-03-05T09:40:12;40.58;;;16.23;;
43986;SDS011;29650;47.378;8.300;2023-03-05T09:42:49;46.35;;;17.05;;
43986;SDS011;29650;47.378;8.300;2023-03-05T09:45:29;43.42;;;16.67;;
43986;SDS011;29650;47.378;8.300;2023-03-05T09:48:05;42.30;;;17.98;;
43986;SDS011;29650;47.378;8.300;2023-03-05T09:50:41;47.97;;;18.98;;
43986;SDS011;29650;47.378;8.300;2023-03-05T09:53:19;41.35;;;17.02;;
43986;SDS011;29650;47.378;8.300;2023-03-05T09:55:51;38.10;;;15.63;;
43986;SDS011;29650;47.378;8.300;2023-03-05T09:58:21;46.80;;;18.45;;
43986;SDS011;29650;47.378;8.300;2023-03-05T10:01:00;41.90;;;19.33;;
43986;SDS011;29650;47.378;8.300;2023-03-05T10:03:34;42.85;;;18.02;;
43986;SDS011;29650;47.378;8.300;2023-03-05T10:06:11;45.70;;;17.42;;
43986;SDS011;29650;47.378;8.300;2023-03-05T10:08:45;40.38;;;17.98;;
43986;SDS011;29650;47.378;8.300;2023-03-05T10:11:19;46.95;;;16.52;;
43986;SDS011;29650;47.378;8.300;2023-03-05T10:14:03;48.53;;;18.05;;
43986;SDS011;29650;47.378;8.300;2023-03-05T10:16:42;41.42;;;17.80;;
43986;SDS011;29650;47.378;8.300;2023-03-05T10:22:39;41.40;;;19.45;;
43986;SDS011;29650;47.378;8.300;2023-03-05T10:25:16;47.25;;;17.98;;
43986;SDS011;29650;47.378;8.300;2023-03-05T10:27:49;55.67;;;19.10;;
43986;SDS011;29650;47.378;8.300;2023-03-05T10:30:23;50.70;;;18.98;;
43986;SDS011;29650;47.378;8.300;2023-03-05T10:33:00;49.63;;;19.83;;
43986;SDS011;29650;47.378;8.300;2023-03-05T10:44:08;50.03;;;18.85;;
43986;SDS011;29650;47.378;8.300;2023-03-05T10:46:40;47.38;;;19.23;;
43986;SDS011;29650;47.378;8.300;2023-03-05T10:49:13;52.25;;;20.20;;
43986;SDS011;29650;47.378;8.300;2023-03-05T10:51:46;48.95;;;18.88;;
43986;SDS011;29650;47.378;8.300;2023-03-05T10:54:18;46.55;;;18.88;;
43986;SDS011;29650;47.378;8.300;2023-03-05T10:57:00;46.13;;;18.70;;
43986;SDS011;29650;47.378;8.300;2023-03-05T10:59:28;44.93;;;19.13;;
43986;SDS011;29650;47.378;8.300;2023-03-05T11:02:00;43.42;;;18.00;;
43986;SDS011;29650;47.378;8.300;2023-03-05T11:04:31;50.17;;;21.58;;
43986;SDS011;29650;47.378;8.300;2023-03-05T11:07:00;54.15;;;19.83;;
43986;SDS011;29650;47.378;8.300;2023-03-05T11:09:31;43.83;;;18.67;;
43986;SDS011;29650;47.378;8.300;2023-03-05T11:12:09;49.05;;;19.55;;
43986;SDS011;29650;47.378;8.300;2023-03-05T11:14:39;45.17;;;17.52;;
43986;SDS011;29650;47.378;8.300;2023-03-05T11:19:56;40.45;;;16.25;;
43986;SDS011;29650;47.378;8.300;2023-03-05T11:22:49;45.03;;;17.77;;
43986;SDS011;29650;47.378;8.300;2023-03-05T11:25:28;47.47;;;18.50;;
43986;SDS011;29650;47.378;8.300;2023-03-05T11:27:56;42.20;;;17.55;;
43986;SDS011;29650;47.378;8.300;2023-03-05T11:30:26;47.78;;;19.20;;
43986;SDS011;29650;47.378;8.300;2023-03-05T11:33:05;45.85;;;19.88;;
43986;SDS011;29650;47.378;8.300;2023-03-05T11:35:36;44.08;;;17.00;;
43986;SDS011;29650;47.378;8.300;2023-03-05T11:38:05;45.45;;;18.08;;
43986;SDS011;29650;47.378;8.300;2023-03-05T11:40:40;43.00;;;18.75;;
43986;SDS011;29650;47.378;8.300;2023-03-05T11:43:08;44.65;;;18.80;;
43986;SDS011;29650;47.378;8.300;2023-03-05T11:45:38;44.40;;;18.85;;
43986;SDS011;29650;47.378;8.300;2023-03-05T11:48:08;48.03;;;19.60;;
43986;SDS011;29650;47.378;8.300;2023-03-05T11:50:43;46.65;;;19.30;;
43986;SDS011;29650;47.378;8.300;2023-03-05T11:53:14;45.90;;;18.65;;
43986;SDS011;29650;47.378;8.300;2023-03-05T11:55:47;54.30;;;21.05;;
43986;SDS011;29650;47.378;8.300;2023-03-05T11:58:22;42.58;;;17.88;;
43986;SDS011;29650;47.378;8.300;2023-03-05T12:00:54;44.97;;;18.70;;
43986;SDS011;29650;47.378;8.300;2023-03-05T12:03:23;40.30;;;17.47;;
43986;SDS011;29650;47.378;8.300;2023-03-05T12:05:55;56.38;;;20.25;;
43986;SDS011;29650;47.378;8.300;2023-03-05T12:08:26;41.67;;;17.23;;
43986;SDS011;29650;47.378;8.300;2023-03-05T12:10:58;45.72;;;18.98;;
43986;SDS011;29650;47.378;8.300;2023-03-05T12:13:30;45.58;;;18.20;;
43986;SDS011;29650;47.378;8.300;2023-03-05T12:16:08;52.42;;;19.58;;
43986;SDS011;29650;47.378;8.300;2023-03-05T12:18:42;51.38;;;19.48;;
43986;SDS011;29650;47.378;8.300;2023-03-05T12:21:20;42.92;;;18.10;;
43986;SDS011;29650;47.378;8.300;2023-03-05T12:23:53;50.28;;;20.40;;
43986;SDS011;29650;47.378;8.300;2023-03-05T12:29:26;36.10;;;16.77;;
43986;SDS011;29650;47.378;8.300;2023-03-05T12:31:55;49.25;;;17.80;;
43986;SDS011;29650;47.378;8.300;2023-03-05T12:40:27;40.88;;;16.20;;
43986;SDS011;29650;47.378;8.300;2023-03-05T12:42:55;37.22;;;16.20;;
43986;SDS011;29650;47.378;8.300;2023-03-05T12:56:54;37.92;;;15.43;;
43986;SDS011;29650;47.378;8.300;2023-03-05T12:59:24;34.60;;;14.80;;
43986;SDS011;29650;47.378;8.300;2023-03-05T13:01:58;36.95;;;15.43;;
43986;SDS011;29650;47.378;8.300;2023-03-05T13:04:29;39.63;;;16.30;;
43986;SDS011;29650;47.378;8.300;2023-03-05T13:06:58;37.97;;;15.02;;
43986;SDS011;29650;47.378;8.300;2023-03-05T13:09:30;41.13;;;16.20;;
43986;SDS011;29650;47.378;8.300;2023-03-05T13:12:00;34.08;;;14.75;;
43986;SDS011;29650;47.378;8.300;2023-03-05T13:14:39;37.15;;;14.73;;
43986;SDS011;29650;47.378;8.300;2023-03-05T13:17:27;36.03;;;14.98;;
43986;SDS011;29650;47.378;8.300;2023-03-05T13:19:56;40.10;;;15.85;;
43986;SDS011;29650;47.378;8.300;2023-03-05T13:22:24;34.50;;;15.87;;
43986;SDS011;29650;47.378;8.300;2023-03-05T13:25:13;35.90;;;16.58;;
43986;SDS011;29650;47.378;8.300;2023-03-05T13:27:44;37.47;;;15.23;;
43986;SDS011;29650;47.378;8.300;2023-03-05T13:30:21;40.65;;;14.85;;
43986;SDS011;29650;47.378;8.300;2023-03-05T13:32:51;40.90;;;16.92;;
43986;SDS011;29650;47.378;8.300;2023-03-05T13:35:22;41.53;;;17.30;;
43986;SDS011;29650;47.378;8.300;2023-03-05T13:37:49;37.20;;;16.55;;
43986;SDS011;29650;47.378;8.300;2023-03-05T13:40:19;29.02;;;13.48;;
43986;SDS011;29650;47.378;8.300;2023-03-05T13:42:48;39.83;;;15.40;;
43986;SDS011;29650;47.378;8.300;2023-03-05T13:45:20;30.92;;;14.80;;
43986;SDS011;29650;47.378;8.300;2023-03-05T13:47:53;37.40;;;14.65;;
43986;SDS011;29650;47.378;8.300;2023-03-05T13:50:23;36.75;;;12.75;;
43986;SDS011;29650;47.378;8.300;2023-03-05T13:52:52;30.08;;;14.13;;
43986;SDS011;29650;47.378;8.300;2023-03-05T13:55:20;28.40;;;11.95;;
43986;SDS011;29650;47.378;8.300;2023-03-05T13:57:48;30.53;;;13.10;;
43986;SDS011;29650;47.378;8.300;2023-03-05T14:00:30;32.65;;;13.35;;
43986;SDS011;29650;47.378;8.300;2023-03-05T14:03:00;31.27;;;13.63;;
43986;SDS011;29650;47.378;8.300;2023-03-05T14:05:34;38.03;;;14.38;;
43986;SDS011;29650;47.378;8.300;2023-03-05T14:08:02;33.00;;;13.18;;
43986;SDS011;29650;47.378;8.300;2023-03-05T14:10:32;28.42;;;12.10;;
43986;SDS011;29650;47.378;8.300;2023-03-05T14:13:02;35.53;;;13.50;;
43986;SDS011;29650;47.378;8.300;2023-03-05T14:15:31;38.35;;;14.50;;
43986;SDS011;29650;47.378;8.300;2023-03-05T14:18:06;28.58;;;11.70;;
43986;SDS011;29650;47.378;8.300;2023-03-05T14:20:57;26.35;;;11.30;;
43986;SDS011;29650;47.378;8.300;2023-03-05T14:23:34;31.13;;;13.75;;
43986;SDS011;29650;47.378;8.300;2023-03-05T14:26:12;34.22;;;12.50;;
43986;SDS011;29650;47.378;8.300;2023-03-05T14:28:51;32.78;;;14.02;;
43986;SDS011;29650;47.378;8.300;2023-03-05T14:31:19;36.63;;;14.00;;
43986;SDS011;29650;47.378;8.300;2023-03-05T14:33:47;28.95;;;13.30;;
43986;SDS011;29650;47.378;8.300;2023-03-05T14:36:19;35.33;;;15.82;;
43986;SDS011;29650;47.378;8.300;2023-03-05T14:38:48;33.85;;;14.05;;
43986;SDS011;29650;47.378;8.300;2023-03-05T14:41:19;32.83;;;12.90;;
43986;SDS011;29650;47.378;8.300;2023-03-05T14:43:54;35.38;;;14.88;;
43986;SDS011;29650;47.378;8.300;2023-03-05T14:46:21;28.52;;;13.90;;
43986;SDS011;29650;47.378;8.300;2023-03-05T14:48:47;30.88;;;13.68;;
43986;SDS011;29650;47.378;8.300;2023-03-05T14:51:14;35.50;;;13.57;;
43986;SDS011;29650;47.378;8.300;2023-03-05T14:53:43;35.58;;;14.02;;
43986;SDS011;29650;47.378;8.300;2023-03-05T14:56:15;32.13;;;14.70;;
43986;SDS011;29650;47.378;8.300;2023-03-05T14:58:45;35.30;;;14.00;;
43986;SDS011;29650;47.378;8.300;2023-03-05T15:01:12;37.10;;;14.02;;
43986;SDS011;29650;47.378;8.300;2023-03-05T15:03:39;28.55;;;13.27;;
43986;SDS011;29650;47.378;8.300;2023-03-05T15:06:06;29.58;;;12.52;;
43986;SDS011;29650;47.378;8.300;2023-03-05T15:08:41;35.90;;;13.82;;
43986;SDS011;29650;47.378;8.300;2023-03-05T15:11:08;29.60;;;11.77;;
43986;SDS011;29650;47.378;8.300;2023-03-05T15:13:35;37.15;;;14.38;;
43986;SDS011;29650;47.378;8.300;2023-03-05T15:16:04;31.95;;;13.18;;